createdAt,value
2022-10-19T00:00:35.859Z,3.83
2022-10-19T00:05:38.654Z,4.05
2022-10-19T00:10:41.836Z,4.03
2022-10-19T00:15:45.618Z,3.87
2022-10-19T00:20:48.448Z,4.78
2022-10-19T00:25:57.877Z,4.63
2022-10-19T00:31:05.729Z,5.00
2022-10-19T00:36:18.402Z,4.57
2022-10-19T00:41:22.457Z,4.50
2022-10-19T00:46:26.846Z,4.13
2022-10-19T00:51:31.490Z,3.70
2022-10-19T00:56:35.238Z,3.85
2022-10-19T01:01:37.966Z,4.70
2022-10-19T01:06:41.911Z,4.60
2022-10-19T01:11:58.256Z,4.45
2022-10-19T01:17:07.848Z,4.93
2022-10-19T01:22:43.931Z,5.10
2022-10-19T01:28:04.822Z,4.80
2022-10-19T01:33:36.216Z,4.53
2022-10-19T01:38:52.021Z,4.35
2022-10-19T01:44:01.053Z,3.93
2022-10-19T01:49:16.462Z,3.85
2022-10-19T01:54:21.160Z,3.63
2022-10-19T01:59:24.262Z,3.63
2022-10-19T02:04:27.383Z,3.83
2022-10-19T02:09:30.425Z,3.87
2022-10-19T02:14:39.878Z,3.70
2022-10-19T02:19:43.632Z,3.65
2022-10-19T02:24:46.328Z,3.50
2022-10-19T02:29:49.038Z,3.50
2022-10-19T02:34:51.822Z,3.67
2022-10-19T02:39:54.581Z,3.83
2022-10-19T02:45:02.039Z,4.25
2022-10-19T02:50:09.302Z,4.50
2022-10-19T02:55:12.041Z,4.72
2022-10-19T03:00:15.123Z,5.43
2022-10-19T03:05:18.112Z,5.00
2022-10-19T03:10:21.089Z,5.75
2022-10-19T03:15:27.369Z,5.17
2022-10-19T03:20:30.088Z,6.10
2022-10-19T03:25:32.848Z,5.60
2022-10-19T03:30:35.551Z,6.18
2022-10-19T03:35:38.254Z,6.65
2022-10-19T03:40:41.290Z,6.83
2022-10-19T03:45:47.193Z,7.00
2022-10-19T03:50:58.162Z,6.57
2022-10-19T03:56:06.459Z,6.95
2022-10-19T04:01:19.593Z,7.35
2022-10-19T04:06:26.287Z,6.20
2022-10-19T04:11:31.131Z,7.97
2022-10-19T04:16:34.285Z,7.63
2022-10-19T04:21:38.699Z,7.75
2022-10-19T04:26:44.409Z,9.27
2022-10-19T04:31:49.855Z,8.60
2022-10-19T04:36:53.773Z,9.27
2022-10-19T04:41:56.539Z,8.77
2022-10-19T04:46:59.279Z,8.70
2022-10-19T04:52:01.971Z,7.97
2022-10-19T04:57:04.938Z,7.77
2022-10-19T05:02:07.859Z,8.05
2022-10-19T05:07:10.581Z,8.63
2022-10-19T05:12:13.298Z,7.63
2022-10-19T05:17:16.274Z,8.65
2022-10-19T05:22:19.402Z,7.30
2022-10-19T05:27:22.634Z,9.23
2022-10-19T05:32:25.719Z,8.30
2022-10-19T05:37:28.513Z,6.63
2022-10-19T05:42:31.304Z,7.20
2022-10-19T05:47:35.517Z,7.27
2022-10-19T05:52:38.953Z,6.90
2022-10-19T05:57:41.816Z,7.03
2022-10-19T06:02:45.002Z,7.20
2022-10-19T06:07:47.773Z,6.40
2022-10-19T06:12:50.583Z,7.07
2022-10-19T06:17:53.663Z,6.20
2022-10-19T06:22:56.482Z,6.83
2022-10-19T06:28:00.112Z,5.55
2022-10-19T06:38:06.480Z,5.93
2022-10-19T06:43:09.443Z,6.40
2022-10-19T06:48:12.159Z,6.37
2022-10-19T06:53:15.011Z,5.85
2022-10-19T06:58:17.842Z,6.80
2022-10-19T07:03:20.709Z,7.53
2022-10-19T07:08:25.035Z,7.65
2022-10-19T07:13:29.450Z,7.80
2022-10-19T07:18:33.242Z,7.00
2022-10-19T07:23:37.774Z,6.65
2022-10-19T07:28:42.430Z,5.63
2022-10-19T07:33:45.596Z,6.95
2022-10-19T07:38:48.614Z,6.33
2022-10-19T07:43:52.253Z,6.03
2022-10-19T07:48:55.466Z,6.88
2022-10-19T07:53:59.297Z,8.87
2022-10-19T07:59:03.121Z,8.60
2022-10-19T08:14:53.445Z,7.97
2022-10-19T08:19:56.336Z,8.03
2022-10-19T08:24:59.138Z,8.05
2022-10-19T08:30:02.182Z,7.13
2022-10-19T08:35:09.931Z,7.57
2022-10-19T08:40:21.313Z,5.60
2022-10-19T08:45:38.728Z,6.03
2022-10-19T08:50:45.009Z,6.50
2022-10-19T08:56:38.818Z,4.87
2022-10-19T09:01:49.889Z,5.53
2022-10-19T09:07:10.879Z,5.88
2022-10-19T09:12:16.987Z,4.60
2022-10-19T09:17:20.911Z,5.80
2022-10-19T09:22:32.859Z,3.63
2022-10-19T09:27:40.221Z,4.55
2022-10-19T09:32:43.448Z,3.58
2022-10-19T09:37:49.370Z,4.57
2022-10-19T09:42:57.391Z,4.80
2022-10-19T09:48:08.640Z,4.20
2022-10-19T09:53:21.047Z,4.32
2022-10-19T09:58:29.201Z,5.28
2022-10-19T10:03:40.737Z,4.60
2022-10-19T10:08:58.113Z,4.20
2022-10-19T10:14:26.218Z,3.73
2022-10-19T10:19:32.079Z,3.50
2022-10-19T10:24:35.122Z,3.80
2022-10-19T10:29:39.664Z,3.70
2022-10-19T10:35:01.971Z,2.88
2022-10-19T10:40:06.899Z,2.90
2022-10-19T10:45:38.430Z,2.83
2022-10-19T10:50:41.318Z,2.80
2022-10-19T10:55:56.412Z,3.30
2022-10-19T11:01:06.562Z,3.42
2022-10-19T11:06:11.993Z,2.57
2022-10-19T11:11:15.382Z,2.40
2022-10-19T11:16:31.749Z,2.17
2022-10-19T11:21:58.098Z,1.70
2022-10-19T11:27:18.325Z,2.42
2022-10-19T11:32:32.390Z,0.70
2022-10-19T11:38:18.903Z,1.58
2022-10-19T11:43:30.890Z,1.58
2022-10-19T11:48:57.913Z,1.53
2022-10-19T11:54:00.718Z,1.50
2022-10-19T11:59:33.278Z,1.60
2022-10-19T12:04:54.902Z,1.70
2022-10-19T12:10:18.213Z,1.60
2022-10-19T12:15:35.395Z,1.50
2022-10-19T12:20:48.476Z,1.70
2022-10-19T12:25:52.413Z,1.47
2022-10-19T12:30:57.048Z,1.50
2022-10-19T12:36:37.154Z,1.50
2022-10-19T12:41:52.766Z,1.33
2022-10-19T12:47:01.551Z,1.40
2022-10-19T12:52:05.535Z,1.43
2022-10-19T12:57:40.715Z,1.40
2022-10-19T13:02:44.237Z,1.58
2022-10-19T13:12:55.170Z,1.60
2022-10-19T13:17:57.977Z,2.03
2022-10-19T13:23:00.758Z,2.30
2022-10-19T13:28:18.179Z,1.60
2022-10-19T13:33:30.109Z,1.93
2022-10-19T13:38:39.800Z,1.67
2022-10-19T13:44:17.331Z,1.90
2022-10-19T13:49:51.133Z,1.92
2022-10-19T13:55:31.844Z,2.22
2022-10-19T14:00:58.407Z,2.40
2022-10-19T14:06:05.676Z,2.50
2022-10-19T14:11:19.434Z,2.27
2022-10-19T14:16:22.989Z,2.55
2022-10-19T14:21:34.296Z,2.90
2022-10-19T14:26:37.084Z,2.70
2022-10-19T14:31:40.332Z,2.70
2022-10-19T14:36:49.030Z,2.70
2022-10-19T14:41:55.641Z,2.90
2022-10-19T14:47:02.252Z,3.00
2022-10-19T14:52:05.366Z,2.63
2022-10-19T14:57:35.205Z,2.50
2022-10-19T15:02:45.493Z,2.50
2022-10-19T15:07:49.143Z,2.55
2022-10-19T15:12:57.936Z,2.20
2022-10-19T15:18:00.861Z,2.40
2022-10-19T15:23:32.938Z,2.33
2022-10-19T15:28:41.392Z,2.60
2022-10-19T15:33:51.469Z,2.78
2022-10-19T15:39:18.097Z,2.78
2022-10-19T15:44:42.414Z,2.37
2022-10-19T15:49:46.004Z,2.42
2022-10-19T15:54:50.373Z,3.93
2022-10-19T15:59:54.399Z,3.50
2022-10-19T16:04:57.279Z,3.25
2022-10-19T16:10:00.488Z,3.70
2022-10-19T16:15:03.592Z,3.65
2022-10-19T16:20:07.390Z,3.47
2022-10-19T16:25:11.029Z,3.40
2022-10-19T16:30:14.523Z,3.50
2022-10-19T16:35:17.388Z,3.67
2022-10-19T16:40:20.560Z,3.88
2022-10-19T16:45:23.245Z,3.97
2022-10-19T16:50:26.011Z,4.70
2022-10-19T16:55:29.531Z,3.85
2022-10-19T17:00:32.799Z,3.23
2022-10-19T17:05:39.048Z,4.65
2022-10-19T17:10:41.838Z,4.30
2022-10-19T17:15:44.789Z,4.25
2022-10-19T17:20:47.619Z,3.67
2022-10-19T17:25:50.686Z,3.50
2022-10-19T17:30:54.018Z,2.88
2022-10-19T17:36:02.440Z,3.13
2022-10-19T17:41:11.531Z,2.60
2022-10-19T17:46:17.338Z,2.75
2022-10-19T17:51:24.232Z,3.20
2022-10-19T17:56:27.968Z,3.53
2022-10-19T18:01:31.252Z,4.07
2022-10-19T18:06:36.540Z,4.05
2022-10-19T18:11:45.386Z,3.90
2022-10-19T18:16:48.293Z,3.57
2022-10-19T18:21:51.043Z,3.67
2022-10-19T18:26:54.323Z,4.23
2022-10-19T18:31:57.129Z,4.05
2022-10-19T18:37:00.130Z,4.05
2022-10-19T18:42:02.975Z,4.30
2022-10-19T18:47:05.873Z,5.13
2022-10-19T18:52:08.696Z,5.03
2022-10-19T18:57:11.737Z,4.35
2022-10-19T19:02:22.236Z,5.25
2022-10-19T19:07:25.728Z,6.37
2022-10-19T19:12:28.604Z,6.95
2022-10-19T19:17:31.382Z,6.40
2022-10-19T19:22:34.544Z,6.65
2022-10-19T19:32:41.560Z,5.80
2022-10-19T19:37:44.597Z,5.72
2022-10-19T19:42:47.367Z,5.60
2022-10-19T19:47:50.193Z,5.43
2022-10-19T19:52:53.342Z,5.63
2022-10-19T19:57:56.378Z,5.10
2022-10-19T20:02:59.912Z,5.13
2022-10-19T20:08:02.943Z,5.23
2022-10-19T20:13:06.027Z,5.97
2022-10-19T20:18:08.852Z,5.00
2022-10-19T20:23:11.611Z,6.23
2022-10-19T20:28:14.542Z,5.82
2022-10-19T20:33:17.352Z,5.43
2022-10-19T20:38:20.183Z,6.20
2022-10-19T20:43:23.469Z,5.88
2022-10-19T20:48:26.303Z,5.80
2022-10-19T20:53:29.283Z,6.80
2022-10-19T20:58:32.244Z,6.70
2022-10-19T21:03:35.463Z,6.43
2022-10-19T21:08:38.388Z,6.90
2022-10-19T21:13:41.503Z,6.87
2022-10-19T21:18:46.422Z,6.70
2022-10-19T21:23:51.814Z,6.93
2022-10-19T21:28:55.181Z,6.78
2022-10-19T21:33:58.191Z,7.05
2022-10-19T21:39:01.342Z,6.77
2022-10-19T21:44:04.283Z,7.30
2022-10-19T21:49:07.043Z,8.27
2022-10-19T21:54:13.915Z,7.78
2022-10-19T21:59:17.466Z,8.30
2022-10-19T22:04:20.303Z,7.50
2022-10-19T22:09:23.571Z,8.30
2022-10-19T22:14:27.626Z,8.07
2022-10-19T22:19:30.713Z,7.85
2022-10-19T22:24:35.036Z,7.45
2022-10-19T22:29:37.899Z,7.87
2022-10-19T22:34:40.816Z,7.63
2022-10-19T22:39:43.617Z,7.50
2022-10-19T22:44:46.382Z,7.60
2022-10-19T22:49:49.296Z,7.68
2022-10-19T22:54:52.051Z,6.70
2022-10-19T22:59:54.775Z,6.53
2022-10-19T23:04:57.514Z,7.67
2022-10-19T23:10:00.217Z,7.03
2022-10-19T23:15:02.887Z,6.10
2022-10-19T23:20:06.228Z,6.37
2022-10-19T23:25:09.686Z,6.53
2022-10-19T23:30:12.406Z,7.93
2022-10-19T23:35:15.109Z,8.07
2022-10-19T23:40:17.767Z,7.45
2022-10-19T23:45:20.497Z,6.97
2022-10-19T23:50:23.229Z,7.00
2022-10-19T23:55:25.906Z,7.07
